sensor_id;sensor_type;location;lat;lon;timestamp;P1;durP1;ratioP1;P2;durP2;ratioP2
19016;SDS011;9641;51.494;6.670;2023-07-31T00:01:40;9.37;;;5.20;;
19016;SDS011;9641;51.494;6.670;2023-07-31T00:04:07;10.93;;;4.47;;
19016;SDS011;9641;51.494;6.670;2023-07-31T00:06:34;11.23;;;4.60;;
19016;SDS011;9641;51.494;6.670;2023-07-31T00:09:00;12.80;;;5.67;;
19016;SDS011;9641;51.494;6.670;2023-07-31T00:11:27;10.13;;;5.17;;
19016;SDS011;9641;51.494;6.670;2023-07-31T00:13:55;9.97;;;4.73;;
19016;SDS011;9641;51.494;6.670;2023-07-31T00:16:22;13.87;;;5.30;;
19016;SDS011;9641;51.494;6.670;2023-07-31T00:18:49;13.27;;;5.23;;
19016;SDS011;9641;51.494;6.670;2023-07-31T00:21:16;16.50;;;6.20;;
19016;SDS011;9641;51.494;6.670;2023-07-31T00:23:43;12.30;;;5.33;;
19016;SDS011;9641;51.494;6.670;2023-07-31T00:26:09;14.90;;;5.03;;
19016;SDS011;9641;51.494;6.670;2023-07-31T00:28:37;11.60;;;5.23;;
19016;SDS011;9641;51.494;6.670;2023-07-31T00:31:05;11.67;;;5.30;;
19016;SDS011;9641;51.494;6.670;2023-07-31T00:33:32;17.03;;;5.57;;
19016;SDS011;9641;51.494;6.670;2023-07-31T00:36:02;11.47;;;5.83;;
19016;SDS011;9641;51.494;6.670;2023-07-31T00:38:29;16.60;;;6.30;;
19016;SDS011;9641;51.494;6.670;2023-07-31T00:40:56;17.00;;;5.57;;
19016;SDS011;9641;51.494;6.670;2023-07-31T00:43:24;12.27;;;5.43;;
19016;SDS011;9641;51.494;6.670;2023-07-31T00:45:51;15.73;;;5.40;;
19016;SDS011;9641;51.494;6.670;2023-07-31T00:48:19;16.17;;;6.27;;
19016;SDS011;9641;51.494;6.670;2023-07-31T00:50:46;17.43;;;6.47;;
19016;SDS011;9641;51.494;6.670;2023-07-31T00:53:14;13.03;;;5.23;;
19016;SDS011;9641;51.494;6.670;2023-07-31T00:55:41;13.73;;;5.70;;
19016;SDS011;9641;51.494;6.670;2023-07-31T00:58:08;14.83;;;5.63;;
19016;SDS011;9641;51.494;6.670;2023-07-31T01:00:37;19.37;;;6.37;;
19016;SDS011;9641;51.494;6.670;2023-07-31T01:03:04;18.50;;;5.63;;
19016;SDS011;9641;51.494;6.670;2023-07-31T01:05:36;12.03;;;5.27;;
19016;SDS011;9641;51.494;6.670;2023-07-31T01:08:08;18.67;;;5.70;;
19016;SDS011;9641;51.494;6.670;2023-07-31T01:10:50;12.33;;;5.00;;
19016;SDS011;9641;51.494;6.670;2023-07-31T01:13:20;18.87;;;5.77;;
19016;SDS011;9641;51.494;6.670;2023-07-31T01:15:47;14.83;;;5.30;;
19016;SDS011;9641;51.494;6.670;2023-07-31T01:18:14;13.90;;;5.80;;
19016;SDS011;9641;51.494;6.670;2023-07-31T01:20:42;11.73;;;5.17;;
19016;SDS011;9641;51.494;6.670;2023-07-31T01:23:28;13.40;;;5.07;;
19016;SDS011;9641;51.494;6.670;2023-07-31T01:26:11;18.13;;;5.20;;
19016;SDS011;9641;51.494;6.670;2023-07-31T01:28:44;10.87;;;5.13;;
19016;SDS011;9641;51.494;6.670;2023-07-31T01:31:18;16.73;;;4.60;;
19016;SDS011;9641;51.494;6.670;2023-07-31T01:33:48;9.63;;;4.73;;
19016;SDS011;9641;51.494;6.670;2023-07-31T01:36:16;15.23;;;4.33;;
19016;SDS011;9641;51.494;6.670;2023-07-31T01:38:43;15.10;;;5.40;;
19016;SDS011;9641;51.494;6.670;2023-07-31T01:41:12;14.27;;;4.87;;
19016;SDS011;9641;51.494;6.670;2023-07-31T01:43:38;9.70;;;4.80;;
19016;SDS011;9641;51.494;6.670;2023-07-31T01:46:05;8.83;;;4.27;;
19016;SDS011;9641;51.494;6.670;2023-07-31T01:48:32;15.33;;;5.17;;
19016;SDS011;9641;51.494;6.670;2023-07-31T01:51:02;14.17;;;4.80;;
19016;SDS011;9641;51.494;6.670;2023-07-31T01:53:29;12.60;;;4.83;;
19016;SDS011;9641;51.494;6.670;2023-07-31T01:55:57;12.33;;;4.97;;
19016;SDS011;9641;51.494;6.670;2023-07-31T01:58:25;12.77;;;5.20;;
19016;SDS011;9641;51.494;6.670;2023-07-31T02:00:52;14.30;;;4.70;;
19016;SDS011;9641;51.494;6.670;2023-07-31T02:03:19;9.17;;;4.10;;
19016;SDS011;9641;51.494;6.670;2023-07-31T02:05:45;16.57;;;5.97;;
19016;SDS011;9641;51.494;6.670;2023-07-31T02:08:13;14.10;;;5.00;;
19016;SDS011;9641;51.494;6.670;2023-07-31T02:10:40;17.23;;;4.57;;
19016;SDS011;9641;51.494;6.670;2023-07-31T02:13:07;12.77;;;4.77;;
19016;SDS011;9641;51.494;6.670;2023-07-31T02:15:36;12.97;;;4.23;;
19016;SDS011;9641;51.494;6.670;2023-07-31T02:18:03;16.47;;;5.67;;
19016;SDS011;9641;51.494;6.670;2023-07-31T02:20:29;14.97;;;4.83;;
19016;SDS011;9641;51.494;6.670;2023-07-31T02:23:01;12.00;;;4.83;;
19016;SDS011;9641;51.494;6.670;2023-07-31T02:25:27;21.13;;;5.00;;
19016;SDS011;9641;51.494;6.670;2023-07-31T02:27:54;14.33;;;4.87;;
19016;SDS011;9641;51.494;6.670;2023-07-31T02:30:21;8.47;;;4.23;;
19016;SDS011;9641;51.494;6.670;2023-07-31T02:32:50;14.03;;;5.37;;
19016;SDS011;9641;51.494;6.670;2023-07-31T02:35:17;12.07;;;4.77;;
19016;SDS011;9641;51.494;6.670;2023-07-31T02:37:45;12.97;;;5.13;;
19016;SDS011;9641;51.494;6.670;2023-07-31T02:40:12;13.57;;;4.73;;
19016;SDS011;9641;51.494;6.670;2023-07-31T02:42:39;11.33;;;4.63;;
19016;SDS011;9641;51.494;6.670;2023-07-31T02:45:06;18.77;;;5.37;;
19016;SDS011;9641;51.494;6.670;2023-07-31T02:47:34;11.90;;;4.53;;
19016;SDS011;9641;51.494;6.670;2023-07-31T02:50:02;11.20;;;4.60;;
19016;SDS011;9641;51.494;6.670;2023-07-31T02:52:30;10.43;;;4.50;;
19016;SDS011;9641;51.494;6.670;2023-07-31T02:54:57;13.17;;;4.80;;
19016;SDS011;9641;51.494;6.670;2023-07-31T02:57:24;15.13;;;4.70;;
19016;SDS011;9641;51.494;6.670;2023-07-31T02:59:50;12.57;;;4.43;;
19016;SDS011;9641;51.494;6.670;2023-07-31T03:02:17;10.60;;;4.47;;
19016;SDS011;9641;51.494;6.670;2023-07-31T03:04:44;10.23;;;4.53;;
19016;SDS011;9641;51.494;6.670;2023-07-31T03:07:12;11.43;;;4.87;;
19016;SDS011;9641;51.494;6.670;2023-07-31T03:09:39;15.77;;;4.67;;
19016;SDS011;9641;51.494;6.670;2023-07-31T03:12:06;13.93;;;5.33;;
19016;SDS011;9641;51.494;6.670;2023-07-31T03:14:34;13.33;;;4.67;;
19016;SDS011;9641;51.494;6.670;2023-07-31T03:17:01;13.80;;;5.00;;
19016;SDS011;9641;51.494;6.670;2023-07-31T03:19:29;14.77;;;5.50;;
19016;SDS011;9641;51.494;6.670;2023-07-31T03:21:57;15.87;;;5.47;;
19016;SDS011;9641;51.494;6.670;2023-07-31T03:24:25;14.37;;;5.33;;
19016;SDS011;9641;51.494;6.670;2023-07-31T03:26:52;11.83;;;5.03;;
19016;SDS011;9641;51.494;6.670;2023-07-31T03:29:19;18.03;;;5.30;;
19016;SDS011;9641;51.494;6.670;2023-07-31T03:31:45;9.33;;;4.57;;
19016;SDS011;9641;51.494;6.670;2023-07-31T03:34:12;13.33;;;4.77;;
19016;SDS011;9641;51.494;6.670;2023-07-31T03:36:39;12.47;;;4.63;;
19016;SDS011;9641;51.494;6.670;2023-07-31T03:39:06;19.37;;;5.37;;
19016;SDS011;9641;51.494;6.670;2023-07-31T03:41:34;12.77;;;4.73;;
19016;SDS011;9641;51.494;6.670;2023-07-31T03:44:01;13.47;;;4.80;;
19016;SDS011;9641;51.494;6.670;2023-07-31T03:46:28;10.13;;;4.87;;
19016;SDS011;9641;51.494;6.670;2023-07-31T03:48:54;14.73;;;4.93;;
19016;SDS011;9641;51.494;6.670;2023-07-31T03:51:21;13.83;;;5.47;;
19016;SDS011;9641;51.494;6.670;2023-07-31T03:53:48;12.77;;;4.57;;
19016;SDS011;9641;51.494;6.670;2023-07-31T03:56:15;13.23;;;4.97;;
19016;SDS011;9641;51.494;6.670;2023-07-31T03:58:43;14.03;;;5.00;;
19016;SDS011;9641;51.494;6.670;2023-07-31T04:01:10;14.57;;;5.10;;
19016;SDS011;9641;51.494;6.670;2023-07-31T04:03:37;17.57;;;5.27;;
19016;SDS011;9641;51.494;6.670;2023-07-31T04:06:04;13.37;;;4.57;;
19016;SDS011;9641;51.494;6.670;2023-07-31T04:08:32;12.20;;;4.90;;
19016;SDS011;9641;51.494;6.670;2023-07-31T04:10:58;8.93;;;4.23;;
19016;SDS011;9641;51.494;6.670;2023-07-31T04:13:25;12.30;;;4.63;;
19016;SDS011;9641;51.494;6.670;2023-07-31T04:15:54;11.67;;;4.40;;
19016;SDS011;9641;51.494;6.670;2023-07-31T04:18:20;14.30;;;4.37;;
19016;SDS011;9641;51.494;6.670;2023-07-31T04:20:47;13.83;;;5.07;;
19016;SDS011;9641;51.494;6.670;2023-07-31T04:23:14;12.83;;;5.00;;
19016;SDS011;9641;51.494;6.670;2023-07-31T04:25:41;14.47;;;4.70;;
19016;SDS011;9641;51.494;6.670;2023-07-31T04:28:08;13.00;;;5.13;;
19016;SDS011;9641;51.494;6.670;2023-07-31T04:30:34;9.30;;;5.37;;
19016;SDS011;9641;51.494;6.670;2023-07-31T04:33:03;14.37;;;4.33;;
19016;SDS011;9641;51.494;6.670;2023-07-31T04:35:29;12.67;;;5.13;;
19016;SDS011;9641;51.494;6.670;2023-07-31T04:37:56;11.37;;;4.93;;
19016;SDS011;9641;51.494;6.670;2023-07-31T04:40:23;12.03;;;5.60;;
19016;SDS011;9641;51.494;6.670;2023-07-31T04:42:50;13.03;;;5.50;;
19016;SDS011;9641;51.494;6.670;2023-07-31T04:45:17;16.23;;;5.27;;
19016;SDS011;9641;51.494;6.670;2023-07-31T04:47:43;11.23;;;4.60;;
19016;SDS011;9641;51.494;6.670;2023-07-31T04:50:11;10.37;;;4.57;;
19016;SDS011;9641;51.494;6.670;2023-07-31T04:52:38;18.00;;;5.00;;
19016;SDS011;9641;51.494;6.670;2023-07-31T04:55:05;10.37;;;4.70;;
19016;SDS011;9641;51.494;6.670;2023-07-31T04:57:33;9.93;;;4.30;;
19016;SDS011;9641;51.494;6.670;2023-07-31T04:59:59;12.73;;;5.13;;
19016;SDS011;9641;51.494;6.670;2023-07-31T05:02:26;12.10;;;4.90;;
19016;SDS011;9641;51.494;6.670;2023-07-31T05:04:53;13.93;;;5.73;;
19016;SDS011;9641;51.494;6.670;2023-07-31T05:07:21;9.43;;;4.67;;
19016;SDS011;9641;51.494;6.670;2023-07-31T05:09:48;15.07;;;5.77;;
19016;SDS011;9641;51.494;6.670;2023-07-31T05:12:15;12.00;;;5.07;;
19016;SDS011;9641;51.494;6.670;2023-07-31T05:14:41;9.73;;;4.60;;
19016;SDS011;9641;51.494;6.670;2023-07-31T05:17:08;11.77;;;4.50;;
19016;SDS011;9641;51.494;6.670;2023-07-31T05:19:35;10.27;;;5.40;;
19016;SDS011;9641;51.494;6.670;2023-07-31T05:22:02;11.23;;;4.97;;
19016;SDS011;9641;51.494;6.670;2023-07-31T05:24:30;10.20;;;4.70;;
19016;SDS011;9641;51.494;6.670;2023-07-31T05:26:57;12.17;;;5.33;;
19016;SDS011;9641;51.494;6.670;2023-07-31T05:29:25;14.33;;;4.97;;
19016;SDS011;9641;51.494;6.670;2023-07-31T05:31:52;8.73;;;4.70;;
19016;SDS011;9641;51.494;6.670;2023-07-31T05:34:18;11.33;;;5.13;;
19016;SDS011;9641;51.494;6.670;2023-07-31T05:36:45;10.33;;;5.47;;
19016;SDS011;9641;51.494;6.670;2023-07-31T05:39:12;17.33;;;5.27;;
19016;SDS011;9641;51.494;6.670;2023-07-31T05:41:40;10.87;;;4.40;;
19016;SDS011;9641;51.494;6.670;2023-07-31T05:44:07;13.80;;;5.50;;
19016;SDS011;9641;51.494;6.670;2023-07-31T05:46:34;10.60;;;5.30;;
19016;SDS011;9641;51.494;6.670;2023-07-31T05:49:01;11.23;;;5.37;;
19016;SDS011;9641;51.494;6.670;2023-07-31T05:51:29;11.47;;;5.40;;
19016;SDS011;9641;51.494;6.670;2023-07-31T05:53:55;9.63;;;5.37;;
19016;SDS011;9641;51.494;6.670;2023-07-31T05:56:22;7.60;;;4.63;;
19016;SDS011;9641;51.494;6.670;2023-07-31T05:58:50;11.53;;;4.80;;
19016;SDS011;9641;51.494;6.670;2023-07-31T06:01:17;10.57;;;5.33;;
19016;SDS011;9641;51.494;6.670;2023-07-31T06:03:46;9.27;;;5.10;;
19016;SDS011;9641;51.494;6.670;2023-07-31T06:06:13;7.73;;;4.73;;
19016;SDS011;9641;51.494;6.670;2023-07-31T06:08:40;8.63;;;4.83;;
19016;SDS011;9641;51.494;6.670;2023-07-31T06:11:06;9.37;;;5.17;;
19016;SDS011;9641;51.494;6.670;2023-07-31T06:13:34;11.63;;;5.53;;
19016;SDS011;9641;51.494;6.670;2023-07-31T06:16:02;12.73;;;5.60;;
19016;SDS011;9641;51.494;6.670;2023-07-31T06:18:30;9.50;;;4.90;;
19016;SDS011;9641;51.494;6.670;2023-07-31T06:20:57;9.23;;;5.57;;
19016;SDS011;9641;51.494;6.670;2023-07-31T06:23:24;10.00;;;5.40;;
19016;SDS011;9641;51.494;6.670;2023-07-31T06:25:51;8.37;;;5.47;;
19016;SDS011;9641;51.494;6.670;2023-07-31T06:28:17;12.20;;;6.13;;
19016;SDS011;9641;51.494;6.670;2023-07-31T06:30:44;14.00;;;5.20;;
19016;SDS011;9641;51.494;6.670;2023-07-31T06:33:12;10.40;;;5.40;;
19016;SDS011;9641;51.494;6.670;2023-07-31T06:35:39;10.00;;;5.53;;
19016;SDS011;9641;51.494;6.670;2023-07-31T06:38:06;10.87;;;4.80;;
19016;SDS011;9641;51.494;6.670;2023-07-31T06:40:33;6.80;;;4.97;;
19016;SDS011;9641;51.494;6.670;2023-07-31T06:42:59;10.83;;;4.97;;
19016;SDS011;9641;51.494;6.670;2023-07-31T06:45:32;5.90;;;4.90;;
19016;SDS011;9641;51.494;6.670;2023-07-31T06:47:59;10.03;;;5.30;;
19016;SDS011;9641;51.494;6.670;2023-07-31T06:50:28;9.27;;;5.33;;
19016;SDS011;9641;51.494;6.670;2023-07-31T06:52:55;9.03;;;5.07;;
19016;SDS011;9641;51.494;6.670;2023-07-31T06:55:22;8.93;;;5.50;;
19016;SDS011;9641;51.494;6.670;2023-07-31T06:57:50;9.07;;;5.70;;
19016;SDS011;9641;51.494;6.670;2023-07-31T07:00:18;10.63;;;5.83;;
19016;SDS011;9641;51.494;6.670;2023-07-31T07:02:46;10.60;;;5.37;;
19016;SDS011;9641;51.494;6.670;2023-07-31T07:05:13;7.67;;;5.33;;
19016;SDS011;9641;51.494;6.670;2023-07-31T07:07:42;9.63;;;4.97;;
19016;SDS011;9641;51.494;6.670;2023-07-31T07:10:10;7.47;;;5.70;;
19016;SDS011;9641;51.494;6.670;2023-07-31T07:12:37;9.23;;;5.23;;
19016;SDS011;9641;51.494;6.670;2023-07-31T07:15:04;11.23;;;5.33;;
19016;SDS011;9641;51.494;6.670;2023-07-31T07:17:31;8.93;;;4.60;;
19016;SDS011;9641;51.494;6.670;2023-07-31T07:19:58;9.00;;;4.90;;
19016;SDS011;9641;51.494;6.670;2023-07-31T07:22:25;7.30;;;4.53;;
19016;SDS011;9641;51.494;6.670;2023-07-31T07:24:54;8.03;;;4.87;;
19016;SDS011;9641;51.494;6.670;2023-07-31T07:27:21;11.33;;;5.00;;
19016;SDS011;9641;51.494;6.670;2023-07-31T07:29:49;8.73;;;4.77;;
19016;SDS011;9641;51.494;6.670;2023-07-31T07:32:17;5.40;;;4.07;;
19016;SDS011;9641;51.494;6.670;2023-07-31T07:34:44;8.07;;;4.33;;
19016;SDS011;9641;51.494;6.670;2023-07-31T07:37:11;9.17;;;4.63;;
19016;SDS011;9641;51.494;6.670;2023-07-31T07:39:38;8.03;;;4.30;;
19016;SDS011;9641;51.494;6.670;2023-07-31T07:42:06;9.77;;;4.60;;
19016;SDS011;9641;51.494;6.670;2023-07-31T07:44:33;9.33;;;4.63;;
19016;SDS011;9641;51.494;6.670;2023-07-31T07:47:00;5.40;;;3.87;;
19016;SDS011;9641;51.494;6.670;2023-07-31T07:49:27;7.20;;;3.43;;
19016;SDS011;9641;51.494;6.670;2023-07-31T07:51:54;5.73;;;3.83;;
19016;SDS011;9641;51.494;6.670;2023-07-31T07:54:20;5.70;;;3.87;;
19016;SDS011;9641;51.494;6.670;2023-07-31T07:56:48;5.77;;;3.57;;
19016;SDS011;9641;51.494;6.670;2023-07-31T07:59:16;8.57;;;3.60;;
19016;SDS011;9641;51.494;6.670;2023-07-31T08:01:43;5.33;;;3.30;;
19016;SDS011;9641;51.494;6.670;2023-07-31T08:04:10;6.80;;;3.17;;
19016;SDS011;9641;51.494;6.670;2023-07-31T08:06:37;6.23;;;3.17;;
19016;SDS011;9641;51.494;6.670;2023-07-31T08:09:04;4.73;;;3.43;;
19016;SDS011;9641;51.494;6.670;2023-07-31T08:11:31;6.47;;;3.40;;
19016;SDS011;9641;51.494;6.670;2023-07-31T08:13:58;5.70;;;3.10;;
19016;SDS011;9641;51.494;6.670;2023-07-31T08:16:26;8.13;;;2.97;;
19016;SDS011;9641;51.494;6.670;2023-07-31T08:18:53;7.70;;;3.50;;
19016;SDS011;9641;51.494;6.670;2023-07-31T08:21:20;4.73;;;2.77;;
19016;SDS011;9641;51.494;6.670;2023-07-31T08:23:48;4.67;;;3.00;;
19016;SDS011;9641;51.494;6.670;2023-07-31T08:26:15;5.80;;;3.07;;
19016;SDS011;9641;51.494;6.670;2023-07-31T08:28:42;4.60;;;3.10;;
19016;SDS011;9641;51.494;6.670;2023-07-31T08:31:09;3.53;;;3.23;;
19016;SDS011;9641;51.494;6.670;2023-07-31T08:33:38;6.10;;;3.60;;
19016;SDS011;9641;51.494;6.670;2023-07-31T08:36:05;6.43;;;3.13;;
19016;SDS011;9641;51.494;6.670;2023-07-31T08:38:32;4.63;;;3.23;;
19016;SDS011;9641;51.494;6.670;2023-07-31T08:40:59;3.43;;;2.83;;
19016;SDS011;9641;51.494;6.670;2023-07-31T08:43:26;4.53;;;3.23;;
19016;SDS011;9641;51.494;6.670;2023-07-31T08:45:53;4.10;;;3.10;;
19016;SDS011;9641;51.494;6.670;2023-07-31T08:48:21;7.83;;;3.30;;
19016;SDS011;9641;51.494;6.670;2023-07-31T08:50:50;6.47;;;3.40;;
19016;SDS011;9641;51.494;6.670;2023-07-31T08:53:18;7.40;;;3.40;;
19016;SDS011;9641;51.494;6.670;2023-07-31T08:55:45;6.07;;;3.60;;
19016;SDS011;9641;51.494;6.670;2023-07-31T08:58:13;6.30;;;3.17;;
19016;SDS011;9641;51.494;6.670;2023-07-31T09:00:41;4.43;;;3.10;;
19016;SDS011;9641;51.494;6.670;2023-07-31T09:03:13;6.13;;;3.40;;
19016;SDS011;9641;51.494;6.670;2023-07-31T09:05:41;5.40;;;3.60;;
19016;SDS011;9641;51.494;6.670;2023-07-31T09:08:11;6.27;;;3.17;;
19016;SDS011;9641;51.494;6.670;2023-07-31T09:10:42;7.57;;;3.57;;
19016;SDS011;9641;51.494;6.670;2023-07-31T09:13:11;4.97;;;3.70;;
19016;SDS011;9641;51.494;6.670;2023-07-31T09:15:38;5.87;;;3.53;;
19016;SDS011;9641;51.494;6.670;2023-07-31T09:18:06;6.87;;;3.60;;
19016;SDS011;9641;51.494;6.670;2023-07-31T09:20:34;4.00;;;3.50;;
19016;SDS011;9641;51.494;6.670;2023-07-31T09:23:06;11.30;;;3.80;;
19016;SDS011;9641;51.494;6.670;2023-07-31T09:25:36;4.13;;;3.30;;
19016;SDS011;9641;51.494;6.670;2023-07-31T09:28:04;6.50;;;3.47;;
19016;SDS011;9641;51.494;6.670;2023-07-31T09:30:43;7.93;;;3.90;;
19016;SDS011;9641;51.494;6.670;2023-07-31T09:33:12;5.13;;;3.37;;
19016;SDS011;9641;51.494;6.670;2023-07-31T09:35:39;5.83;;;3.10;;
19016;SDS011;9641;51.494;6.670;2023-07-31T09:38:07;8.87;;;3.70;;
19016;SDS011;9641;51.494;6.670;2023-07-31T09:40:37;3.83;;;3.33;;
19016;SDS011;9641;51.494;6.670;2023-07-31T09:43:06;4.40;;;3.60;;
19016;SDS011;9641;51.494;6.670;2023-07-31T09:45:35;4.97;;;3.13;;
19016;SDS011;9641;51.494;6.670;2023-07-31T09:48:03;5.13;;;3.20;;
19016;SDS011;9641;51.494;6.670;2023-07-31T09:50:34;3.10;;;2.90;;
19016;SDS011;9641;51.494;6.670;2023-07-31T09:53:03;4.67;;;3.30;;
19016;SDS011;9641;51.494;6.670;2023-07-31T09:55:30;8.73;;;4.00;;
19016;SDS011;9641;51.494;6.670;2023-07-31T09:57:59;4.60;;;3.30;;
19016;SDS011;9641;51.494;6.670;2023-07-31T10:00:29;3.23;;;3.00;;
19016;SDS011;9641;51.494;6.670;2023-07-31T10:02:58;4.57;;;3.40;;
19016;SDS011;9641;51.494;6.670;2023-07-31T10:05:27;5.37;;;3.57;;
19016;SDS011;9641;51.494;6.670;2023-07-31T10:07:57;5.57;;;3.43;;
19016;SDS011;9641;51.494;6.670;2023-07-31T10:10:25;4.23;;;3.50;;
19016;SDS011;9641;51.494;6.670;2023-07-31T10:12:54;5.77;;;3.30;;
19016;SDS011;9641;51.494;6.670;2023-07-31T10:15:23;5.43;;;3.50;;
19016;SDS011;9641;51.494;6.670;2023-07-31T10:17:51;7.13;;;3.90;;
19016;SDS011;9641;51.494;6.670;2023-07-31T10:20:20;6.77;;;3.97;;
19016;SDS011;9641;51.494;6.670;2023-07-31T10:22:47;7.03;;;4.03;;
19016;SDS011;9641;51.494;6.670;2023-07-31T10:25:15;5.57;;;3.70;;
19016;SDS011;9641;51.494;6.670;2023-07-31T10:27:42;6.33;;;3.70;;
19016;SDS011;9641;51.494;6.670;2023-07-31T10:30:10;6.67;;;5.07;;
19016;SDS011;9641;51.494;6.670;2023-07-31T10:32:40;7.60;;;5.00;;
19016;SDS011;9641;51.494;6.670;2023-07-31T10:35:09;6.23;;;4.17;;
19016;SDS011;9641;51.494;6.670;2023-07-31T10:37:38;5.73;;;3.80;;
19016;SDS011;9641;51.494;6.670;2023-07-31T10:40:09;5.67;;;3.93;;
19016;SDS011;9641;51.494;6.670;2023-07-31T10:42:38;4.53;;;4.03;;
19016;SDS011;9641;51.494;6.670;2023-07-31T10:45:13;4.53;;;3.90;;
19016;SDS011;9641;51.494;6.670;2023-07-31T10:47:43;6.10;;;3.87;;
19016;SDS011;9641;51.494;6.670;2023-07-31T10:50:12;4.17;;;3.10;;
19016;SDS011;9641;51.494;6.670;2023-07-31T10:52:44;6.43;;;3.50;;
19016;SDS011;9641;51.494;6.670;2023-07-31T10:55:16;7.63;;;3.60;;
19016;SDS011;9641;51.494;6.670;2023-07-31T10:57:50;6.40;;;3.53;;
19016;SDS011;9641;51.494;6.670;2023-07-31T11:00:18;6.07;;;3.57;;
19016;SDS011;9641;51.494;6.670;2023-07-31T11:02:57;3.63;;;3.33;;
19016;SDS011;9641;51.494;6.670;2023-07-31T11:05:41;8.20;;;3.70;;
19016;SDS011;9641;51.494;6.670;2023-07-31T11:08:12;5.90;;;3.43;;
19016;SDS011;9641;51.494;6.670;2023-07-31T11:10:41;6.67;;;3.53;;
19016;SDS011;9641;51.494;6.670;2023-07-31T11:13:08;5.40;;;3.40;;
19016;SDS011;9641;51.494;6.670;2023-07-31T11:15:35;4.60;;;3.13;;
19016;SDS011;9641;51.494;6.670;2023-07-31T11:18:04;3.67;;;3.33;;
19016;SDS011;9641;51.494;6.670;2023-07-31T11:20:33;5.20;;;3.43;;
19016;SDS011;9641;51.494;6.670;2023-07-31T11:23:01;5.23;;;3.10;;
19016;SDS011;9641;51.494;6.670;2023-07-31T11:25:28;6.00;;;3.50;;
19016;SDS011;9641;51.494;6.670;2023-07-31T11:27:56;4.30;;;3.37;;
19016;SDS011;9641;51.494;6.670;2023-07-31T11:30:23;5.23;;;3.43;;
19016;SDS011;9641;51.494;6.670;2023-07-31T11:32:50;3.87;;;3.27;;
19016;SDS011;9641;51.494;6.670;2023-07-31T11:35:19;4.43;;;3.60;;
19016;SDS011;9641;51.494;6.670;2023-07-31T11:37:45;5.50;;;3.40;;
19016;SDS011;9641;51.494;6.670;2023-07-31T11:40:13;4.80;;;3.53;;
19016;SDS011;9641;51.494;6.670;2023-07-31T11:42:41;7.03;;;3.60;;
19016;SDS011;9641;51.494;6.670;2023-07-31T11:45:08;6.80;;;3.43;;
19016;SDS011;9641;51.494;6.670;2023-07-31T11:47:36;6.20;;;3.23;;
19016;SDS011;9641;51.494;6.670;2023-07-31T11:50:04;4.17;;;3.50;;
19016;SDS011;9641;51.494;6.670;2023-07-31T11:52:36;4.00;;;3.60;;
19016;SDS011;9641;51.494;6.670;2023-07-31T11:55:05;5.87;;;3.50;;
19016;SDS011;9641;51.494;6.670;2023-07-31T11:57:36;4.43;;;3.33;;
19016;SDS011;9641;51.494;6.670;2023-07-31T12:00:06;4.90;;;3.60;;
19016;SDS011;9641;51.494;6.670;2023-07-31T12:02:34;4.23;;;3.70;;
19016;SDS011;9641;51.494;6.670;2023-07-31T12:05:02;5.27;;;3.60;;
19016;SDS011;9641;51.494;6.670;2023-07-31T12:07:43;4.57;;;3.50;;
19016;SDS011;9641;51.494;6.670;2023-07-31T12:10:27;4.43;;;4.00;;
19016;SDS011;9641;51.494;6.670;2023-07-31T12:13:02;4.30;;;3.70;;
19016;SDS011;9641;51.494;6.670;2023-07-31T12:15:35;4.37;;;3.87;;
19016;SDS011;9641;51.494;6.670;2023-07-31T12:18:06;4.60;;;3.07;;
19016;SDS011;9641;51.494;6.670;2023-07-31T12:20:35;4.80;;;3.43;;
19016;SDS011;9641;51.494;6.670;2023-07-31T12:23:07;6.13;;;3.37;;
19016;SDS011;9641;51.494;6.670;2023-07-31T12:25:39;5.60;;;3.40;;
19016;SDS011;9641;51.494;6.670;2023-07-31T12:28:06;3.83;;;3.27;;
19016;SDS011;9641;51.494;6.670;2023-07-31T12:30:37;4.90;;;3.37;;
19016;SDS011;9641;51.494;6.670;2023-07-31T12:33:06;4.22;;;3.00;;
19016;SDS011;9641;51.494;6.670;2023-07-31T12:35:37;5.05;;;3.40;;
19016;SDS011;9641;51.494;6.670;2023-07-31T12:38:04;3.58;;;2.90;;
19016;SDS011;9641;51.494;6.670;2023-07-31T12:40:33;5.30;;;2.92;;
19016;SDS011;9641;51.494;6.670;2023-07-31T12:43:02;5.45;;;3.30;;
19016;SDS011;9641;51.494;6.670;2023-07-31T12:45:29;4.85;;;3.25;;
19016;SDS011;9641;51.494;6.670;2023-07-31T12:47:57;5.78;;;3.33;;
19016;SDS011;9641;51.494;6.670;2023-07-31T12:50:24;3.85;;;3.00;;
19016;SDS011;9641;51.494;6.670;2023-07-31T12:52:51;3.85;;;3.00;;
19016;SDS011;9641;51.494;6.670;2023-07-31T12:55:20;4.78;;;2.70;;
19016;SDS011;9641;51.494;6.670;2023-07-31T12:57:47;4.90;;;2.57;;
19016;SDS011;9641;51.494;6.670;2023-07-31T13:00:14;3.45;;;2.80;;
19016;SDS011;9641;51.494;6.670;2023-07-31T13:02:42;5.88;;;3.53;;
19016;SDS011;9641;51.494;6.670;2023-07-31T13:05:08;3.38;;;3.03;;
19016;SDS011;9641;51.494;6.670;2023-07-31T13:07:35;5.85;;;3.17;;
19016;SDS011;9641;51.494;6.670;2023-07-31T13:10:03;3.90;;;2.85;;
19016;SDS011;9641;51.494;6.670;2023-07-31T13:12:32;6.03;;;3.65;;
19016;SDS011;9641;51.494;6.670;2023-07-31T13:14:59;4.18;;;3.47;;
19016;SDS011;9641;51.494;6.670;2023-07-31T13:17:26;4.05;;;3.13;;
19016;SDS011;9641;51.494;6.670;2023-07-31T13:19:53;4.57;;;3.00;;
19016;SDS011;9641;51.494;6.670;2023-07-31T13:22:20;4.70;;;3.28;;
19016;SDS011;9641;51.494;6.670;2023-07-31T13:24:46;6.05;;;3.38;;
19016;SDS011;9641;51.494;6.670;2023-07-31T13:27:13;3.75;;;3.13;;
19016;SDS011;9641;51.494;6.670;2023-07-31T13:29:43;4.90;;;3.30;;
19016;SDS011;9641;51.494;6.670;2023-07-31T13:32:10;5.15;;;4.15;;
19016;SDS011;9641;51.494;6.670;2023-07-31T13:34:37;4.68;;;3.50;;
19016;SDS011;9641;51.494;6.670;2023-07-31T13:37:04;6.53;;;3.10;;
19016;SDS011;9641;51.494;6.670;2023-07-31T13:39:32;4.95;;;3.50;;
19016;SDS011;9641;51.494;6.670;2023-07-31T13:41:59;4.20;;;3.30;;
19016;SDS011;9641;51.494;6.670;2023-07-31T13:44:26;5.88;;;3.53;;
19016;SDS011;9641;51.494;6.670;2023-07-31T13:46:54;5.68;;;3.70;;
19016;SDS011;9641;51.494;6.670;2023-07-31T13:49:21;7.15;;;3.97;;
19016;SDS011;9641;51.494;6.670;2023-07-31T13:51:48;4.78;;;3.28;;
19016;SDS011;9641;51.494;6.670;2023-07-31T13:54:15;5.82;;;3.67;;
19016;SDS011;9641;51.494;6.670;2023-07-31T13:56:42;4.40;;;3.30;;
19016;SDS011;9641;51.494;6.670;2023-07-31T13:59:09;6.38;;;3.72;;
19016;SDS011;9641;51.494;6.670;2023-07-31T14:01:36;5.65;;;3.30;;
19016;SDS011;9641;51.494;6.670;2023-07-31T14:04:05;5.00;;;3.13;;
19016;SDS011;9641;51.494;6.670;2023-07-31T14:06:32;6.75;;;3.45;;
19016;SDS011;9641;51.494;6.670;2023-07-31T14:08:59;4.82;;;3.50;;
19016;SDS011;9641;51.494;6.670;2023-07-31T14:11:26;6.18;;;3.60;;
19016;SDS011;9641;51.494;6.670;2023-07-31T14:13:53;4.80;;;3.25;;
19016;SDS011;9641;51.494;6.670;2023-07-31T14:16:19;5.38;;;4.07;;
19016;SDS011;9641;51.494;6.670;2023-07-31T14:18:47;6.65;;;4.07;;
19016;SDS011;9641;51.494;6.670;2023-07-31T14:21:15;7.72;;;3.75;;
19016;SDS011;9641;51.494;6.670;2023-07-31T14:23:44;5.93;;;3.70;;
19016;SDS011;9641;51.494;6.670;2023-07-31T14:26:11;7.07;;;3.42;;
19016;SDS011;9641;51.494;6.670;2023-07-31T14:28:38;5.22;;;3.58;;
19016;SDS011;9641;51.494;6.670;2023-07-31T14:31:05;4.93;;;3.47;;
19016;SDS011;9641;51.494;6.670;2023-07-31T14:33:32;5.93;;;3.72;;
19016;SDS011;9641;51.494;6.670;2023-07-31T14:35:59;5.85;;;3.45;;
19016;SDS011;9641;51.494;6.670;2023-07-31T14:38:28;7.50;;;3.85;;
19016;SDS011;9641;51.494;6.670;2023-07-31T14:40:55;7.80;;;4.28;;
19016;SDS011;9641;51.494;6.670;2023-07-31T14:43:22;6.47;;;3.83;;
19016;SDS011;9641;51.494;6.670;2023-07-31T14:45:49;5.35;;;3.78;;
19016;SDS011;9641;51.494;6.670;2023-07-31T14:48:17;5.38;;;4.00;;
19016;SDS011;9641;51.494;6.670;2023-07-31T14:50:43;6.82;;;4.10;;
19016;SDS011;9641;51.494;6.670;2023-07-31T14:53:10;6.93;;;4.30;;
19016;SDS011;9641;51.494;6.670;2023-07-31T14:55:39;5.97;;;4.20;;
19016;SDS011;9641;51.494;6.670;2023-07-31T14:58:06;6.78;;;3.80;;
19016;SDS011;9641;51.494;6.670;2023-07-31T15:00:32;6.85;;;4.00;;